Guide — WDE7328 — position and weather

sailwx.info

Track history (hours):
 
Tides and Currents Weather Stations Pressure Air Temp Water Temp Dewpoint Dewpoint Depression Visibility Wind Speed Wind Dir Waves Ship Positions

Guide

Owner: Crowley Marine Services, SEATTLE, WA. More information available from US FCC via Universal Licensing System and Coast Guard Vessel Documentation Center.

Last reported at 2016-Sep-28 19:33 UTC. Time now 2016-Sep-28 20:33 UTC.
Position N 47°15' W 122°26'.

Length 34 m; draft 5.1 m.

Type: Tug. MMSI: 366759530.

Date/timePositionNaut miles runAvg speedWind from/ knotsBaromVisibWave heightAir tempDewpointWater temp
2016-Sep-28 19:33N 47°15' W 122°26'1 0.4
2016-Sep-28 16:33N 47°16' W 122°25'0 0.0
2016-Sep-28 15:33N 47°16' W 122°25'1 0.2
2016-Sep-28 12:33N 47°16' W 122°24'2 0.4
2016-Sep-28 08:33N 47°15' W 122°26'0 0.0
2016-Sep-28 03:33N 47°15' W 122°26'0 0.0
2016-Sep-28 02:30N 47°15' W 122°26'1 1.2
2016-Sep-28 01:33N 47°16' W 122°26'1 0.7
2016-Sep-27 23:33N 47°18' W 122°26'0 0.0
2016-Sep-27 19:32N 47°18' W 122°26'3 0.5
2016-Sep-27 14:33N 47°16' W 122°23'3 2.8
2016-Sep-27 13:33N 47°17' W 122°26'3 0.9
2016-Sep-27 10:33N 47°16' W 122°23'0 0.0
2016-Sep-27 00:34N 47°15' W 122°23'2 0.5
2016-Sep-26 20:33N 47°15' W 122°26'0 0.0
2016-Sep-26 19:33N 47°15' W 122°26'0 0.0
2016-Sep-26 15:33N 47°15' W 122°26'0 0.0
2016-Sep-26 13:31N 47°15' W 122°26'0 0.0
2016-Sep-26 11:33N 47°15' W 122°26'0 0.0
2016-Sep-26 08:33N 47°15' W 122°26'2 0.3
2016-Sep-26 02:33N 47°16' W 122°23'1 1.4
2016-Sep-26 01:33N 47°16' W 122°25'2 1.5
2016-Sep-26 00:33N 47°17' W 122°26'1 0.3
2016-Sep-25 21:33N 47°17' W 122°25'1 0.4
2016-Sep-25 17:33N 47°15' W 122°26'0 0.0
2016-Sep-25 16:27N 47°15' W 122°26'0 0.0
2016-Sep-25 15:33N 47°15' W 122°26'0 0.0
2016-Sep-25 14:33N 47°15' W 122°26'0 0.0
2016-Sep-25 12:33N 47°15' W 122°26'0 0.0
2016-Sep-25 11:33N 47°15' W 122°26'0 0.0
2016-Sep-25 10:33N 47°15' W 122°26'0 0.0
2016-Sep-25 09:33N 47°15' W 122°26'0 0.0
2016-Sep-25 07:33N 47°15' W 122°26'0 0.0
2016-Sep-25 04:33N 47°15' W 122°26'0 0.0
2016-Sep-25 00:33N 47°15' W 122°26'1 0.7
2016-Sep-24 22:33N 47°17' W 122°25'1 0.6
2016-Sep-24 21:33N 47°17' W 122°26'2 1.0
2016-Sep-24 19:33N 47°15' W 122°26'0 0.0
2016-Sep-24 18:33N 47°15' W 122°26'0 0.0
2016-Sep-24 17:33N 47°15' W 122°26'0 0.0
2016-Sep-24 16:33N 47°15' W 122°26'0 0.0
2016-Sep-24 14:33N 47°15' W 122°26'0 0.0
2016-Sep-24 12:33N 47°15' W 122°26'1 0.4
2016-Sep-24 10:33N 47°16' W 122°26'1 0.8
2016-Sep-24 09:33N 47°15' W 122°26'0 0.0
2016-Sep-24 03:33N 47°15' W 122°26'0 0.0
2016-Sep-24 02:33N 47°15' W 122°26'2 1.6
2016-Sep-24 01:33N 47°17' W 122°25'2 1.9
2016-Sep-24 00:33N 47°15' W 122°23'2 0.4
2016-Sep-23 19:34N 47°17' W 122°26'1 0.7
2016-Sep-23 17:33N 47°15' W 122°26'0 0.0
2016-Sep-23 16:33N 47°15' W 122°26'0 0.0
2016-Sep-23 15:33N 47°15' W 122°26'0 0.0
2016-Sep-23 13:33N 47°15' W 122°26'2 0.4
2016-Sep-23 09:33N 47°17' W 122°25'16 5.3
2016-Sep-23 06:33N 47°33' W 122°25'4 1.9
2016-Sep-23 04:33N 47°35' W 122°21'0 0.0
2016-Sep-23 03:33N 47°35' W 122°21'0 0.0
2016-Sep-23 02:33N 47°35' W 122°21'0 0.0
2016-Sep-23 01:33N 47°35' W 122°21'0 0.0
2016-Sep-23 00:33N 47°35' W 122°21'0 0.4
2016-Sep-22 23:33N 47°36' W 122°21'0 0.1
2016-Sep-22 20:33N 47°35' W 122°21'7 0.9
2016-Sep-22 12:33N 47°29' W 122°24'14 1.7
2016-Sep-22 04:33N 47°15' W 122°26'0 0.0
2016-Sep-22 03:33N 47°15' W 122°26'5 1.8
2016-Sep-22 00:33N 47°21' W 122°26'8 8.1
2016-Sep-21 23:34N 47°29' W 122°24'8 7.5
2016-Sep-21 22:34N 47°36' W 122°22'13 4.4
2016-Sep-21 19:33N 47°23' W 122°21'8 2.8
2016-Sep-21 16:33N 47°15' W 122°26'2 0.3
2016-Sep-21 09:33N 47°16' W 122°23'3 2.8
2016-Sep-21 08:32N 47°18' W 122°26'0 0.0
2016-Sep-21 05:29N 47°18' W 122°26'0 0.0
2016-Sep-21 03:26N 47°18' W 122°26'0 0.0
2016-Sep-21 02:33N 47°18' W 122°26'0 0.0
2016-Sep-20 17:27N 47°18' W 122°26'0 0.0
2016-Sep-20 14:29N 47°18' W 122°26'3 2.9
2016-Sep-20 13:33N 47°16' W 122°23'2 0.7
2016-Sep-20 10:32N 47°15' W 122°26'0 0.1
2016-Sep-20 08:32N 47°15' W 122°26'0 0.0
2016-Sep-20 07:33N 47°15' W 122°26'0 0.0
2016-Sep-20 06:32N 47°15' W 122°26'0 0.0
2016-Sep-20 02:33N 47°15' W 122°26'2 0.5
2016-Sep-19 23:33N 47°16' W 122°24'2 0.4
2016-Sep-19 19:33N 47°15' W 122°26'0 0.0
2016-Sep-19 18:33N 47°15' W 122°26'0 0.0
2016-Sep-19 16:33N 47°15' W 122°26'0 0.0
2016-Sep-19 14:33N 47°15' W 122°26'0 0.0
2016-Sep-19 13:33N 47°15' W 122°26'1 1.1
2016-Sep-19 12:33N 47°16' W 122°25'1 1.1
2016-Sep-19 11:33N 47°16' W 122°24'2 0.9
2016-Sep-19 09:33N 47°15' W 122°26'0 0.0
2016-Sep-19 07:33N 47°15' W 122°26'0 0.0
2016-Sep-19 06:17N 47°15' W 122°26'0 0.0
2016-Sep-19 03:33N 47°15' W 122°26'0 0.0
2016-Sep-19 02:33N 47°15' W 122°26'0 0.0
2016-Sep-19 00:33N 47°15' W 122°26'0 0.0
2016-Sep-18 19:33N 47°15' W 122°26'  
Track history (hours):
 
Tides and Currents Weather Stations Pressure Air Temp Water Temp Dewpoint Dewpoint Depression Visibility Wind Speed Wind Dir Waves Ship Positions

Guide

Owner: Crowley Marine Services, SEATTLE, WA. More information available from US FCC via Universal Licensing System and Coast Guard Vessel Documentation Center.

Last reported at 2016-Sep-28 19:33 UTC. Time now 2016-Sep-28 20:33 UTC.
Position N 47°15' W 122°26'.

Length 34 m; draft 5.1 m.

Type: Tug. MMSI: 366759530.

Date/timePositionNaut miles runAvg speedWind from/ knotsBaromVisibWave heightAir tempDewpointWater temp
2016-Sep-28 19:33N 47°15' W 122°26'1 0.4
2016-Sep-28 16:33N 47°16' W 122°25'0 0.0
2016-Sep-28 15:33N 47°16' W 122°25'1 0.2
2016-Sep-28 12:33N 47°16' W 122°24'2 0.4
2016-Sep-28 08:33N 47°15' W 122°26'0 0.0
2016-Sep-28 03:33N 47°15' W 122°26'0 0.0
2016-Sep-28 02:30N 47°15' W 122°26'1 1.2
2016-Sep-28 01:33N 47°16' W 122°26'1 0.7
2016-Sep-27 23:33N 47°18' W 122°26'0 0.0
2016-Sep-27 19:32N 47°18' W 122°26'3 0.5
2016-Sep-27 14:33N 47°16' W 122°23'3 2.8
2016-Sep-27 13:33N 47°17' W 122°26'3 0.9
2016-Sep-27 10:33N 47°16' W 122°23'0 0.0
2016-Sep-27 00:34N 47°15' W 122°23'2 0.5
2016-Sep-26 20:33N 47°15' W 122°26'0 0.0
2016-Sep-26 19:33N 47°15' W 122°26'0 0.0
2016-Sep-26 15:33N 47°15' W 122°26'0 0.0
2016-Sep-26 13:31N 47°15' W 122°26'0 0.0
2016-Sep-26 11:33N 47°15' W 122°26'0 0.0
2016-Sep-26 08:33N 47°15' W 122°26'2 0.3
2016-Sep-26 02:33N 47°16' W 122°23'1 1.4
2016-Sep-26 01:33N 47°16' W 122°25'2 1.5
2016-Sep-26 00:33N 47°17' W 122°26'1 0.3
2016-Sep-25 21:33N 47°17' W 122°25'1 0.4
2016-Sep-25 17:33N 47°15' W 122°26'0 0.0
2016-Sep-25 16:27N 47°15' W 122°26'0 0.0
2016-Sep-25 15:33N 47°15' W 122°26'0 0.0
2016-Sep-25 14:33N 47°15' W 122°26'0 0.0
2016-Sep-25 12:33N 47°15' W 122°26'0 0.0
2016-Sep-25 11:33N 47°15' W 122°26'0 0.0
2016-Sep-25 10:33N 47°15' W 122°26'0 0.0
2016-Sep-25 09:33N 47°15' W 122°26'0 0.0
2016-Sep-25 07:33N 47°15' W 122°26'0 0.0
2016-Sep-25 04:33N 47°15' W 122°26'0 0.0
2016-Sep-25 00:33N 47°15' W 122°26'1 0.7
2016-Sep-24 22:33N 47°17' W 122°25'1 0.6
2016-Sep-24 21:33N 47°17' W 122°26'2 1.0
2016-Sep-24 19:33N 47°15' W 122°26'0 0.0
2016-Sep-24 18:33N 47°15' W 122°26'0 0.0
2016-Sep-24 17:33N 47°15' W 122°26'0 0.0
2016-Sep-24 16:33N 47°15' W 122°26'0 0.0
2016-Sep-24 14:33N 47°15' W 122°26'0 0.0
2016-Sep-24 12:33N 47°15' W 122°26'1 0.4
2016-Sep-24 10:33N 47°16' W 122°26'1 0.8
2016-Sep-24 09:33N 47°15' W 122°26'0 0.0
2016-Sep-24 03:33N 47°15' W 122°26'0 0.0
2016-Sep-24 02:33N 47°15' W 122°26'2 1.6
2016-Sep-24 01:33N 47°17' W 122°25'2 1.9
2016-Sep-24 00:33N 47°15' W 122°23'2 0.4
2016-Sep-23 19:34N 47°17' W 122°26'1 0.7
2016-Sep-23 17:33N 47°15' W 122°26'0 0.0
2016-Sep-23 16:33N 47°15' W 122°26'0 0.0
2016-Sep-23 15:33N 47°15' W 122°26'0 0.0
2016-Sep-23 13:33N 47°15' W 122°26'2 0.4
2016-Sep-23 09:33N 47°17' W 122°25'16 5.3
2016-Sep-23 06:33N 47°33' W 122°25'4 1.9
2016-Sep-23 04:33N 47°35' W 122°21'0 0.0
2016-Sep-23 03:33N 47°35' W 122°21'0 0.0
2016-Sep-23 02:33N 47°35' W 122°21'0 0.0
2016-Sep-23 01:33N 47°35' W 122°21'0 0.0
2016-Sep-23 00:33N 47°35' W 122°21'0 0.4
2016-Sep-22 23:33N 47°36' W 122°21'0 0.1
2016-Sep-22 20:33N 47°35' W 122°21'7 0.9
2016-Sep-22 12:33N 47°29' W 122°24'14 1.7
2016-Sep-22 04:33N 47°15' W 122°26'0 0.0
2016-Sep-22 03:33N 47°15' W 122°26'5 1.8
2016-Sep-22 00:33N 47°21' W 122°26'8 8.1
2016-Sep-21 23:34N 47°29' W 122°24'8 7.5
2016-Sep-21 22:34N 47°36' W 122°22'13 4.4
2016-Sep-21 19:33N 47°23' W 122°21'8 2.8
2016-Sep-21 16:33N 47°15' W 122°26'2 0.3
2016-Sep-21 09:33N 47°16' W 122°23'3 2.8
2016-Sep-21 08:32N 47°18' W 122°26'0 0.0
2016-Sep-21 05:29N 47°18' W 122°26'0 0.0
2016-Sep-21 03:26N 47°18' W 122°26'0 0.0
2016-Sep-21 02:33N 47°18' W 122°26'0 0.0
2016-Sep-20 17:27N 47°18' W 122°26'0 0.0
2016-Sep-20 14:29N 47°18' W 122°26'3 2.9
2016-Sep-20 13:33N 47°16' W 122°23'2 0.7
2016-Sep-20 10:32N 47°15' W 122°26'0 0.1
2016-Sep-20 08:32N 47°15' W 122°26'0 0.0
2016-Sep-20 07:33N 47°15' W 122°26'0 0.0
2016-Sep-20 06:32N 47°15' W 122°26'0 0.0
2016-Sep-20 02:33N 47°15' W 122°26'2 0.5
2016-Sep-19 23:33N 47°16' W 122°24'2 0.4
2016-Sep-19 19:33N 47°15' W 122°26'0 0.0
2016-Sep-19 18:33N 47°15' W 122°26'0 0.0
2016-Sep-19 16:33N 47°15' W 122°26'0 0.0
2016-Sep-19 14:33N 47°15' W 122°26'0 0.0
2016-Sep-19 13:33N 47°15' W 122°26'1 1.1
2016-Sep-19 12:33N 47°16' W 122°25'1 1.1
2016-Sep-19 11:33N 47°16' W 122°24'2 0.9
2016-Sep-19 09:33N 47°15' W 122°26'0 0.0
2016-Sep-19 07:33N 47°15' W 122°26'0 0.0
2016-Sep-19 06:17N 47°15' W 122°26'0 0.0
2016-Sep-19 03:33N 47°15' W 122°26'0 0.0
2016-Sep-19 02:33N 47°15' W 122°26'0 0.0
2016-Sep-19 00:33N 47°15' W 122°26'0 0.0
2016-Sep-18 19:33N 47°15' W 122°26'  

Dump ship's entire track history